Martinsville, Missouri
Current Conditions -  °F | °C
As of 12:53 AM on Saturday 25 Oct 2014 (Local Time) from KLWD Reporting Station
Moderate Fog Moderate Fog  
Wind Chill: 54°   Ceiling: 200
Heat Index: 54°   Visibility: 0.25mi
Dew Point: 53°   Wind: 3mph
Humidity: 97%   Direction: 360°N
Pressure: 29.98"   Gusts: NA
Location:  40.34°N, 94.16°W
Report Text: KLWD 250553Z AUTO 36003KT 1/4SM FG VV002 12/12 A2998 RMK AO2 SLP153 T01220117 10194 20122 402060122 50005
Loading
Personal Weather Stations






























Interactive Weather Map
Tropical Storm Tracking
New forecast layout! Learn more

10-Day Weather Forecast

Advertisements
Track Severe Weather on mobile